Sebastian Lange

Ojeador - Bayer Leverkusen
20 Ene 2028
Jueves
Continuar

Personalidad

Adaptabilidad (10) Ambición (3) Controversia (1) Lealtad (17) Presión (9) Profesionalismo (1) Deportividad (1) Temperamento (6)

Perfil

Estilo de dirección Democrático
Licencia Continental B
Determinación 7
Gestión de personas 9
Motivación 14
Disciplina 14
Satisfacción laboral
100%
Fatiga
0%
Cargo Ojeador
Salario 122.5K p/s
Contrato 14.03.2029

Rendimiento

Comportamiento Bueno
Efectividad del entrenamiento
49%
Desarrollo de jugadores
80%
Prevención de lesiones
75%
Implementación táctica
55%

Eventos recientes

Cursando desarrollo profesional ahora
Asistió a una reunión de captación ahora
Asistió a una reunión de captación ahora
Recomendó un objetivo de fichaje ahora
Recomendó un objetivo de fichaje ahora
Presentó un informe a la directiva 7d atrás
Cursando desarrollo profesional 7d atrás
Cursando desarrollo profesional 7d atrás

Actualmente siguiendo

131
Jugador Club Estado Habilidad Confianza Observado Última observación Último voto
Bence Dárdai VfL Wolfsburg Informe listo 136 / 142 69% 1 17.01.2028 -
Rodrygo Real Madrid Activo 169 / 167 40% 11 10.01.2028 -
Thiago Brentford Activo 159 / 153 40% 8 10.01.2028 -
Jérémy Doku Manchester City Activo 170 / 173 40% 2 10.01.2028 -
Jordi Alba Eintracht Frankfurt Perdido 140 / 139 69% 1 07.01.2028 -
Nico Williams Athletic Bilbao Activo 175 / 173 40% 4 06.01.2028 -
Aljoscha Kemlein Union Berlin Perdido 127 / 137 69% 1 04.01.2028 Aprobar
Iliman N'Diaye Everton Activo 165 / 158 40% 6 31.12.2027 -
Javi Puado Espanyol Activo 157 / 148 40% 12 31.12.2027 -
Federico Chiesa Liverpool Activo 164 / 158 40% 1 30.08.2027 -
Mauro Arambarri River Plate Activo 148 / 152 40% 1 24.08.2027 -
Brais Méndez Columbus Crew Activo 142 / 147 40% 1 24.08.2027 -
Alphonso Davies Bayern Munich Activo 169 / 168 40% 2 23.08.2027 -
Wouter Burger TSG Hoffenheim Activo 155 / 151 40% 1 23.08.2027 -
Ismael Saibari Bayern Munich Activo 165 / 155 40% 1 21.08.2027 -
Vitor Roque Köln Activo 142 / 157 40% 1 21.08.2027 -
Antonio Nusa RB Leipzig Activo 151 / 155 40% 1 21.08.2027 -
Konrad Laimer Bayern Munich Activo 151 / 161 40% 1 21.08.2027 -
Kenan Yıldız Juventus Activo 172 / 166 40% 5 18.08.2027 -
Raphinha Barcelona Activo 180 / 181 40% 1 16.08.2027 -
Curtis Jones Inter Activo 156 / 158 40% 1 16.08.2027 -
Pablo Torre Mallorca Activo 150 / 149 40% 1 16.08.2027 -
Gabriel Jesus Barcelona Activo 164 / 161 40% 1 16.08.2027 -
Oihan Sancet Athletic Bilbao Activo 166 / 165 40% 9 14.08.2027 -
José Ángel Carmona Sevilla Activo 155 / 155 40% 1 14.08.2027 -
Alexis Saelemaekers AC Milan Activo 156 / 156 40% 1 14.08.2027 -
Tani Oluwaseyi Villarreal Activo 143 / 144 40% 10 11.08.2027 -
Óscar Aranda VfL Wolfsburg Activo 140 / 136 40% 2 11.08.2027 -
Dušan Vlahović Juventus Activo 161 / 159 40% 7 10.08.2027 -
Germán Valera Elche Activo 141 / 142 40% 3 10.08.2027 -
Abel Ruiz Girona Activo 142 / 143 40% 3 10.08.2027 -
Jonathan Dubasin Osasuna Activo 152 / 148 40% 11 09.08.2027 -
Joe Gelhardt Hull City Activo 139 / 136 40% 5 09.08.2027 -
Giacomo Raspadori Atalanta Activo 156 / 149 40% 10 08.08.2027 -
Tommy Conway Middlesbrough Activo 141 / 130 40% 1 08.08.2027 -
Luis Vázquez Birmingham Activo 137 / 132 40% 1 08.08.2027 -
Hugo Duro Valencia Activo 153 / 146 40% 10 07.08.2027 -
Maroan Sannadi Athletic Bilbao Activo 138 / 138 40% 4 07.08.2027 -
Ilyas Ansah Hull City Activo 141 / 137 40% 3 05.08.2027 -
Assane Diao Lazio Activo 150 / 154 40% 1 05.08.2027 -
Georges Mikautadze Villarreal Activo 158 / 152 40% 9 03.08.2027 -
Morgan Whittaker Middlesbrough Activo 141 / 135 40% 9 03.08.2027 -
Aune Heggebø West Bromwich Albion Activo 131 / 129 40% 1 03.08.2027 -
Mason Mount Manchester United Activo 153 / 156 40% 5 01.08.2027 -
Kiernan Dewsbury-Hall Everton Activo 150 / 150 40% 2 01.08.2027 -
Luis Díaz Bayern Munich Activo 161 / 170 40% 1 01.08.2027 -
Urko Izeta Cádiz Activo 130 / 135 40% 3 31.07.2027 -
Andrej Ilić Union Berlin Activo 131 / 136 40% 1 31.07.2027 -
Rômulo RB Leipzig Activo 147 / 148 40% 6 30.07.2027 -
Joaquín Panichelli Le Havre AC Activo 148 / 146 40% 2 25.07.2027 -
Karim Adeyemi Barcelona Activo 156 / 156 40% 1 24.07.2027 -
Mohamed-Ali Cho Hull City Activo 140 / 139 40% 7 21.07.2027 -
Ez Abde Girona Activo 154 / 153 40% 9 20.07.2027 -
Tom Cannon Sheffield United Activo 137 / 132 40% 1 20.07.2027 -
Troy Parrott Betis Activo 140 / 139 40% 2 19.07.2027 -
Ferran Torres Paris Saint-Germain Activo 166 / 168 40% 8 13.07.2027 -
Gonçalo Ramos AC Milan Activo 157 / 156 40% 3 13.07.2027 -
Dávid Strelec Middlesbrough Activo 142 / 140 40% 2 10.07.2027 -
Bryan Mbeumo Manchester United Activo 161 / 158 40% 1 08.07.2027 -
Diego López Rayo Vallecano Activo 134 / 142 40% 1 06.07.2027 -
Khvicha Kvaratskhelia Paris Saint-Germain Activo 165 / 166 40% 14 05.07.2027 -
Andrés Martín Racing Santander Activo 132 / 133 40% 7 25.06.2027 -
Mikel Oyarzábal Real Sociedad Activo 156 / 160 40% 1 21.06.2027 -
Dango Ouattara Brentford Activo 149 / 148 40% 2 14.06.2027 -
Georginio Rutter Brighton Activo 143 / 147 40% 6 10.06.2027 -
Kang-In Lee Atlético Madrid Activo 165 / 158 40% 9 31.05.2027 -
Matheus Cunha Manchester United Activo 159 / 158 40% 16 30.05.2027 -
Gabriel Martinelli Brighton Activo 164 / 160 40% 11 28.05.2027 -
Jude Bellingham Real Madrid Perdido 174 / 180 40% 9 27.05.2027 -
Álex Berenguer Athletic Bilbao Activo 150 / 153 40% 3 27.05.2027 -
Morgan Rogers Chelsea Activo 163 / 160 40% 4 26.05.2027 -
Kai Havertz Arsenal Activo 168 / 161 40% 10 26.05.2027 -
Pedri Barcelona Activo 184 / 181 40% 14 24.05.2027 -
Xavi Simons Tottenham Activo 162 / 159 40% 4 24.05.2027 -
Karl Hein Werder Bremen Activo 134 / 140 40% 2 22.05.2027 -
Senne Lammens Manchester United Activo 154 / 156 40% 4 22.05.2027 -
Christoph Baumgartner RB Leipzig Activo 158 / 150 40% 4 17.05.2027 -
Ademola Lookman Atlético Madrid Activo 159 / 161 40% 6 17.05.2027 -
Marco Asensio Fenerbahce Activo 148 / 160 40% 3 17.05.2027 -
Bradley Barcola Liverpool Activo 167 / 164 40% 4 15.05.2027 -
Moisés Caicedo Chelsea Activo 164 / 171 40% 5 11.05.2027 -
Jacob Ramsey Newcastle United Activo 151 / 153 40% 1 11.05.2027 -
Jamal Musiala Bayern Munich Activo 172 / 171 40% 7 08.05.2027 -
Mohammed Kudus Tottenham Activo 163 / 154 40% 4 08.05.2027 -
Álex Baena Atlético Madrid Activo 162 / 161 40% 9 05.05.2027 -
João Pedro Chelsea Activo 155 / 150 40% 3 05.05.2027 -
Alejandro Grimaldo Atlético Madrid Activo 164 / 164 40% 2 03.05.2027 -
Yehvann Diouf OGC Nice Activo 142 / 140 40% 1 28.04.2027 -
Maduka Okoye Udinese Activo 132 / 136 40% 1 23.04.2027 -
Ousmane Dembélé Paris Saint-Germain Activo 183 / 185 40% 1 20.04.2027 -
Antoine Semenyo Manchester City Activo 170 / 160 40% 3 12.04.2027 -
Rayan Cherki Manchester City Activo 164 / 166 40% 11 29.03.2027 -
Michael Olise Bayern Munich Activo 173 / 177 40% 3 20.03.2027 -
Cody Gakpo Liverpool Activo 167 / 156 40% 1 18.03.2027 -
Julen Agirrezabala Racing Santander Activo 143 / 142 40% 3 15.03.2027 -
Marco Carnesecchi Bayern Munich Activo 148 / 155 40% 1 15.03.2027 -
Jofre Torrents Ajax Activo 117 / 126 40% 1 04.03.2027 -
James Trafford Leeds United Activo 140 / 141 40% 2 03.03.2027 -
Robin Roefs Sunderland Activo 139 / 145 40% 3 03.03.2027 -
Mile Svilar RB Leipzig Activo 159 / 164 40% 3 28.02.2027 Observar
Carlos Vicente Birmingham Activo 144 / 142 40% 5 14.02.2027 -
Joan García Barcelona Activo 168 / 165 40% 1 14.02.2027 -
Tomoki Hayakawa Kashima Antlers Activo 148 / 137 40% 1 14.02.2027 -
Tyrhys Dolan Espanyol Activo 139 / 138 40% 1 04.02.2027 -
Linton Maina Köln Activo 127 / 130 62% 1 18.01.2027 Aprobar
Pablo Barrios Atlético Madrid Activo 153 / 160 40% 4 29.12.2026 -
Gavi Barcelona Perdido 166 / 161 40% 1 25.12.2026 -
Paulinho Palmeiras Activo 144 / 142 40% 2 09.12.2026 -
Matt O'Riley Brighton Activo 142 / 145 40% 2 25.11.2026 -
Felix Nmecha Borussia Dortmund Activo 163 / 158 40% 2 14.11.2026 -
Bilal El Khannouss VfB Stuttgart Activo 152 / 146 40% 1 24.10.2026 -
Sandro Tonali Tottenham Activo 166 / 174 40% 2 22.10.2026 -
Johnny Cardoso Atlético Madrid Activo 152 / 155 40% 4 20.10.2026 -
Amad Manchester United Activo 159 / 153 40% 1 18.10.2026 -
Declan Rice Arsenal Activo 176 / 183 40% 1 16.10.2026 -
Erick Reyes Toluca Activo 145 / 140 40% 3 05.10.2026 -
Bento Al-Nassr Activo 134 / 130 40% 1 30.09.2026 -
Hector Ramirez Newcastle United Activo 150 / 155 40% 1 28.09.2026 -
Diogo Costa Manchester City Activo 156 / 158 40% 1 23.09.2026 -
Luiz Júnior TSG Hoffenheim Activo 146 / 146 40% 1 22.09.2026 -
Nico González Newcastle United Activo 149 / 161 40% 2 21.09.2026 -
Arijanet Murić Sassuolo Activo 145 / 134 40% 1 20.09.2026 -
Florian Wirtz Liverpool Activo 172 / 170 40% 1 16.09.2026 -
Mads Hermansen West Ham United Activo 125 / 132 40% 1 16.09.2026 -
Radek Vítek Middlesbrough Activo 124 / 133 40% 1 15.09.2026 -
Jonas Urbig Bayern Munich Activo 142 / 137 40% 1 09.09.2026 -
Keisuke Osako Sanfrecce Hiroshima Activo 145 / 136 40% 1 08.09.2026 -
Dean Huijsen Villarreal Activo 129 / 145 40% 1 31.08.2026 -
Elías Báez Atlanta United FC Activo 117 / 128 40% 1 24.08.2026 -
Ryan Andrews Young Boys Activo 122 / 119 40% 1 19.08.2026 -
Nico O'Reilly Manchester City Activo 152 / 154 40% 1 19.08.2026 -